createdAt,value
2019-02-17T00:04:41.218Z,9.03
2019-02-17T00:09:47.330Z,7.70
2019-02-17T00:14:53.668Z,8.57
2019-02-17T00:20:00.459Z,10.37
2019-02-17T00:25:07.324Z,8.57
2019-02-17T00:30:13.421Z,8.43
2019-02-17T00:35:19.780Z,8.50
2019-02-17T00:40:26.477Z,8.57
2019-02-17T00:45:32.545Z,9.00
2019-02-17T00:50:39.660Z,8.00
2019-02-17T00:55:46.426Z,8.47
2019-02-17T01:00:52.943Z,7.73
2019-02-17T01:05:58.865Z,8.43
2019-02-17T01:11:05.410Z,7.57
2019-02-17T01:16:12.630Z,8.20
2019-02-17T01:21:20.087Z,8.47
2019-02-17T01:26:27.696Z,8.60
2019-02-17T01:31:34.518Z,8.83
2019-02-17T01:36:41.889Z,9.40
2019-02-17T01:41:50.226Z,10.20
2019-02-17T01:46:57.450Z,9.53
2019-02-17T01:52:04.997Z,9.37
2019-02-17T01:57:12.597Z,9.60
2019-02-17T02:02:21.416Z,9.57
2019-02-17T02:07:28.556Z,9.60
2019-02-17T02:12:35.006Z,10.23
2019-02-17T02:17:42.017Z,9.10
2019-02-17T02:22:49.262Z,8.83
2019-02-17T02:27:56.541Z,11.60
2019-02-17T02:33:04.165Z,9.30
2019-02-17T02:38:10.200Z,11.37
2019-02-17T02:43:17.360Z,9.50
2019-02-17T02:48:24.510Z,10.73
2019-02-17T02:53:32.026Z,9.13
2019-02-17T02:58:40.716Z,9.30
2019-02-17T03:03:47.478Z,9.77
2019-02-17T03:08:53.647Z,9.43
2019-02-17T03:14:01.555Z,11.00
2019-02-17T03:19:08.440Z,11.07
2019-02-17T03:24:14.789Z,10.40
2019-02-17T03:29:20.935Z,10.70
2019-02-17T03:34:27.379Z,9.53
2019-02-17T03:39:34.853Z,10.03
2019-02-17T03:44:42.358Z,10.87
2019-02-17T03:49:49.348Z,12.13
2019-02-17T03:54:56.320Z,9.23
2019-02-17T04:00:02.263Z,9.63
2019-02-17T04:05:09.304Z,8.17
2019-02-17T04:10:15.290Z,8.53
2019-02-17T04:15:21.416Z,9.43
2019-02-17T04:20:27.903Z,10.00
2019-02-17T04:25:35.792Z,9.80
2019-02-17T04:30:42.564Z,10.53
2019-02-17T04:35:49.903Z,10.60
2019-02-17T04:40:57.547Z,10.73
2019-02-17T04:46:04.773Z,8.97
2019-02-17T04:51:11.847Z,10.10
2019-02-17T04:56:18.028Z,8.63
2019-02-17T05:01:25.369Z,8.30
2019-02-17T05:06:32.575Z,9.67
2019-02-17T05:11:39.021Z,8.87
2019-02-17T05:16:45.804Z,8.83
2019-02-17T05:21:52.482Z,9.93
2019-02-17T05:26:59.856Z,10.20
2019-02-17T05:32:07.862Z,9.70
2019-02-17T05:37:14.382Z,10.07
2019-02-17T05:42:21.806Z,8.83
2019-02-17T05:47:30.102Z,8.93
2019-02-17T05:52:37.754Z,9.63
2019-02-17T05:57:44.839Z,9.80
2019-02-17T06:02:52.509Z,10.40
2019-02-17T06:07:59.278Z,10.00
2019-02-17T06:13:05.997Z,9.97
2019-02-17T06:18:13.263Z,9.13
2019-02-17T06:23:21.028Z,9.27
2019-02-17T06:28:28.685Z,8.27
2019-02-17T06:33:34.686Z,8.87
2019-02-17T06:38:40.615Z,10.10
2019-02-17T06:43:46.941Z,10.33
2019-02-17T06:48:54.074Z,10.90
2019-02-17T06:54:01.804Z,8.40
2019-02-17T06:59:09.451Z,9.73
2019-02-17T07:04:17.917Z,11.27
2019-02-17T07:09:24.841Z,8.53
2019-02-17T07:14:31.353Z,11.23
2019-02-17T07:19:40.940Z,8.13
2019-02-17T07:24:48.682Z,9.53
2019-02-17T07:30:17.704Z,11.17
2019-02-17T07:35:27.594Z,10.17
2019-02-17T07:40:37.574Z,11.53
2019-02-17T07:45:46.602Z,10.90
2019-02-17T07:51:02.258Z,11.57
2019-02-17T07:56:15.642Z,11.10
2019-02-17T08:01:29.846Z,11.03
2019-02-17T08:06:43.373Z,9.80
2019-02-17T08:11:56.671Z,11.43
2019-02-17T08:17:04.571Z,11.10
2019-02-17T08:22:11.346Z,11.00
2019-02-17T08:27:20.384Z,13.00
2019-02-17T08:32:32.429Z,11.17
2019-02-17T08:37:40.003Z,14.33
2019-02-17T08:42:47.022Z,14.57
2019-02-17T08:47:54.014Z,13.77
2019-02-17T08:53:02.392Z,13.33
2019-02-17T08:58:11.830Z,13.33
2019-02-17T09:03:17.759Z,11.63
2019-02-17T09:08:27.057Z,5.23
2019-02-17T09:13:36.419Z,10.77
2019-02-17T09:18:42.846Z,12.63
2019-02-17T09:23:51.366Z,13.30
2019-02-17T09:28:57.376Z,13.00
2019-02-17T09:34:03.182Z,12.93
2019-02-17T09:39:12.587Z,14.10
2019-02-17T09:44:18.593Z,13.57
2019-02-17T09:49:25.071Z,12.47
2019-02-17T09:54:31.399Z,12.37
2019-02-17T09:59:38.283Z,10.57
2019-02-17T10:04:44.398Z,11.90
2019-02-17T10:09:50.683Z,13.60
2019-02-17T10:14:56.855Z,12.63
2019-02-17T10:20:04.005Z,11.47
2019-02-17T10:25:10.478Z,11.20
2019-02-17T10:30:16.583Z,13.00
2019-02-17T10:35:23.400Z,11.27
2019-02-17T10:40:30.705Z,12.27
2019-02-17T10:45:36.656Z,10.83
2019-02-17T10:50:43.188Z,6.87
2019-02-17T10:55:50.689Z,10.60
2019-02-17T11:00:58.804Z,8.40
2019-02-17T11:06:04.925Z,12.37
2019-02-17T11:11:12.068Z,9.33
2019-02-17T11:16:36.922Z,7.53
2019-02-17T11:21:45.937Z,8.93
2019-02-17T11:26:58.672Z,10.38
2019-02-17T11:32:04.760Z,10.95
2019-02-17T11:37:10.906Z,9.65
2019-02-17T11:42:18.173Z,9.25
2019-02-17T11:47:25.247Z,9.18
2019-02-17T11:52:32.939Z,8.78
2019-02-17T11:57:39.412Z,10.18
2019-02-17T12:02:48.044Z,9.83
2019-02-17T12:07:55.781Z,9.93
2019-02-17T12:13:04.505Z,9.53
2019-02-17T12:18:11.403Z,10.10
2019-02-17T12:23:22.571Z,8.28
2019-02-17T12:28:42.744Z,9.45
2019-02-17T12:33:51.769Z,9.45
2019-02-17T12:38:58.487Z,8.63
2019-02-17T12:44:06.248Z,11.48
2019-02-17T12:49:12.244Z,10.95
2019-02-17T12:54:28.821Z,10.53
2019-02-17T12:59:28.758Z,9.98
2019-02-17T13:04:35.889Z,10.95
2019-02-17T13:09:41.892Z,9.58
2019-02-17T13:14:48.533Z,9.73
2019-02-17T13:19:57.021Z,8.48
2019-02-17T13:25:04.077Z,9.80
2019-02-17T13:30:13.639Z,10.58
2019-02-17T13:35:19.544Z,10.18
2019-02-17T13:40:25.362Z,9.38
2019-02-17T13:45:32.575Z,10.35
2019-02-17T13:50:40.030Z,9.93
2019-02-17T13:55:47.304Z,11.85
2019-02-17T14:00:54.072Z,10.78
2019-02-17T14:06:00.111Z,10.43
2019-02-17T14:11:06.719Z,9.98
2019-02-17T14:16:15.134Z,8.58
2019-02-17T14:21:21.376Z,9.60
2019-02-17T14:26:28.437Z,8.50
2019-02-17T14:31:34.732Z,9.93
2019-02-17T14:36:42.392Z,9.78
2019-02-17T14:41:49.368Z,8.75
2019-02-17T14:46:55.429Z,8.33
2019-02-17T14:52:01.349Z,9.03
2019-02-17T14:57:08.832Z,8.58
2019-02-17T15:02:15.976Z,7.50
2019-02-17T15:07:25.778Z,7.70
2019-02-17T15:12:31.838Z,7.05
2019-02-17T15:17:40.533Z,10.63
2019-02-17T15:22:49.226Z,8.13
2019-02-17T15:27:56.904Z,8.85
2019-02-17T15:33:04.312Z,7.03
2019-02-17T15:38:11.346Z,7.00
2019-02-17T15:43:17.654Z,8.13
2019-02-17T15:48:25.347Z,7.70
2019-02-17T15:53:32.645Z,7.60
2019-02-17T15:58:40.346Z,8.03
2019-02-17T16:03:47.650Z,8.47
2019-02-17T16:08:54.954Z,8.40
2019-02-17T16:14:02.152Z,7.53
2019-02-17T16:19:10.478Z,8.10
2019-02-17T16:24:16.534Z,7.63
2019-02-17T16:29:22.255Z,9.33
2019-02-17T16:34:37.769Z,8.27
2019-02-17T16:39:37.416Z,7.97
2019-02-17T16:44:44.876Z,8.80
2019-02-17T16:49:51.788Z,9.27
2019-02-17T16:54:58.183Z,8.37
2019-02-17T17:00:06.002Z,8.27
2019-02-17T17:05:12.014Z,8.00
2019-02-17T17:10:18.738Z,7.87
2019-02-17T17:15:24.894Z,8.10
2019-02-17T17:20:31.779Z,8.03
2019-02-17T17:25:39.166Z,7.70
2019-02-17T17:30:47.143Z,7.50
2019-02-17T17:35:53.233Z,6.87
2019-02-17T17:40:59.843Z,7.77
2019-02-17T17:46:07.495Z,7.13
2019-02-17T17:51:13.856Z,6.93
2019-02-17T17:56:20.604Z,5.50
2019-02-17T18:01:26.918Z,6.20
2019-02-17T18:06:34.038Z,5.73
2019-02-17T18:11:41.111Z,5.33
2019-02-17T18:16:49.743Z,6.10
2019-02-17T18:21:56.352Z,5.13
2019-02-17T18:27:05.809Z,5.17
2019-02-17T18:32:13.914Z,5.20
2019-02-17T18:37:21.240Z,5.33
2019-02-17T18:42:28.944Z,5.40
2019-02-17T18:47:36.323Z,4.87
2019-02-17T18:52:44.907Z,4.80
2019-02-17T18:57:53.100Z,4.40
2019-02-17T19:03:00.907Z,4.60
2019-02-17T19:08:07.730Z,4.97
2019-02-17T19:13:14.314Z,5.80
2019-02-17T19:18:21.386Z,5.30
2019-02-17T19:23:28.487Z,6.33
2019-02-17T19:28:36.167Z,5.77
2019-02-17T19:33:43.834Z,6.20
2019-02-17T19:38:52.171Z,5.27
2019-02-17T19:43:59.429Z,5.50
2019-02-17T19:49:06.905Z,6.53
2019-02-17T19:54:13.958Z,5.77
2019-02-17T19:59:19.860Z,6.70
2019-02-17T20:04:32.640Z,7.47
2019-02-17T20:09:39.806Z,7.77
2019-02-17T20:14:46.737Z,8.40
2019-02-17T20:19:53.451Z,8.43
2019-02-17T20:25:00.036Z,8.50
2019-02-17T20:30:10.229Z,8.60
2019-02-17T20:35:16.362Z,8.70
2019-02-17T20:40:24.017Z,7.23
2019-02-17T20:45:33.713Z,7.80
2019-02-17T20:50:41.831Z,7.47
2019-02-17T20:55:48.713Z,8.40
2019-02-17T21:00:57.353Z,7.47
2019-02-17T21:06:12.410Z,7.47
2019-02-17T21:11:13.466Z,6.93
2019-02-17T21:16:21.334Z,7.27
2019-02-17T21:21:28.990Z,7.67
2019-02-17T21:26:36.628Z,5.70
2019-02-17T21:31:50.480Z,6.10
2019-02-17T21:36:58.812Z,6.27
2019-02-17T21:42:04.711Z,6.80
2019-02-17T21:47:12.069Z,7.03
2019-02-17T21:52:19.499Z,6.33
2019-02-17T21:57:26.682Z,6.07
2019-02-17T22:02:32.770Z,7.30
2019-02-17T22:07:38.925Z,6.17
2019-02-17T22:12:45.163Z,7.10
2019-02-17T22:17:51.515Z,6.27
2019-02-17T22:22:57.996Z,5.33
2019-02-17T22:28:04.229Z,5.30
2019-02-17T22:33:11.114Z,5.70
2019-02-17T22:38:17.266Z,5.50
2019-02-17T22:43:23.607Z,6.77
2019-02-17T22:48:30.328Z,5.23
2019-02-17T22:53:43.579Z,6.23
2019-02-17T22:58:46.036Z,5.40
2019-02-17T23:03:51.951Z,5.97
2019-02-17T23:08:58.822Z,5.70
2019-02-17T23:14:06.043Z,6.07
2019-02-17T23:19:11.870Z,5.40
2019-02-17T23:24:21.160Z,5.97
2019-02-17T23:29:27.635Z,5.53
2019-02-17T23:34:35.193Z,5.00
2019-02-17T23:39:42.183Z,5.33
2019-02-17T23:44:48.788Z,4.97
2019-02-17T23:49:55.772Z,5.97
2019-02-17T23:55:04.384Z,4.47
